Weather observations for the past three days for
Spartanburg Memorial
Imperial (Metric)
Date Time (edt) Wind (mph) Vis. (mi.) Weather Sky Cond. Temperature (ºF) Relative Humidity Wind Chill (°F) Heat Index (°F) Pressure Precipitation (in)
Air Dwpt 6 hour altimeter (in) sea level (mb) 1 hr 3 hr 6 hr
Max. Min.
04 15:15 SW 3 10.00 Fair CLR 77 32 19% 77 29.98 0.0
04 14:55 SW 6 10.00 Fair CLR 75.2 32 21% 76 29.99 0.0
04 14:35 SE 7 10.00 Fair CLR 75.2 33.8 22% 76 30 0.0
04 14:15 Calm 10.00 Fair CLR 73.4 33.8 23% 30 0.0
04 13:55 SE 3 10.00 Fair CLR 73.4 33.8 23% 30.01 0.0
04 13:35 Calm 10.00 Fair CLR 73.4 35.6 25% 30.01 0.0
04 13:15 W 3 10.00 Fair CLR 71.6 35.6 27% 30.01 0.0
04 12:55 SW 6 10.00 Fair CLR 71.6 37.4 29% 30.02 0.0
04 12:35 E 5 10.00 Fair CLR 69.8 35.6 29% 30.03 0.0
04 12:15 Calm 10.00 Fair CLR 69.8 33.8 27% 30.04 0.0
04 11:55 Calm 10.00 Fair CLR 68 33.8 28% 30.05 0.0
04 11:35 Calm 10.00 Fair CLR 68 35.6 30% 30.05 0.0
04 11:15 Calm 10.00 Fair CLR 66.2 35.6 32% 30.06 0.0
04 10:55 Calm 10.00 Fair CLR 64.4 35.6 34% 30.06 0.0
04 10:35 Calm 10.00 Fair CLR 64.4 37.4 37% 30.06 0.0
04 10:10 Calm 10.00 Fair CLR 62.6 37.4 39% 30.06 0.0
04 09:55 Calm 10.00 Fair CLR 62.6 42.8 49% 30.06 0.0
04 09:35 Calm 10.00 Fair CLR 59 42.8 55% 30.06 0.0
04 09:15 Calm 10.00 Fair CLR 57.2 42.8 59% 30.05 0.0
04 08:55 Calm 10.00 Fair CLR 55.4 42.8 63% 30.05 0.0
04 08:35 Calm 10.00 Fair CLR 53.6 41 63% 30.04 0.0
04 08:15 Calm 10.00 Fair CLR 51.8 42.8 72% 30.05 0.0
04 07:55 Calm 10.00 Fair CLR 50 42.8 76% 30.04 0.0
04 07:35 Calm 10.00 Fair CLR 46.4 42.8 87% 30.04 0.0
04 07:15 Calm 10.00 Fair CLR 42.8 41 93% 30.04 0.0
04 06:55 N 3 10.00 Fair CLR 41 39.2 93% 30.04 0.0
04 06:35 Calm 10.00 Fair CLR 41 37.4 87% 30.03 0.0
04 06:15 Calm 10.00 Fair CLR 42.8 39.2 87% 30.03 0.0
04 05:55 Calm 10.00 Fair CLR 42.8 39.2 87% 30.04 0.0
04 05:15 Calm 10.00 Fair CLR 44.6 39.2 81% 30.04 0.0
04 04:55 Calm 10.00 Fair CLR 44.6 39.2 81% 30.04 0.0
04 04:35 Calm 10.00 Fair CLR 44.6 39.2 81% 30.03 0.0
04 04:15 Calm 10.00 Fair CLR 44.6 39.2 81% 30.03 0.0
04 03:55 Calm 10.00 Fair CLR 44.6 39.2 81% 30.02 0.0
04 03:35 Calm 10.00 Fair CLR 46.4 41 82% 30.02 0.0
04 03:15 Calm 10.00 Fair CLR 46.4 41 82% 30.02 0.0
04 02:55 Calm 10.00 Fair CLR 46.4 41 82% 30.03 0.0
04 02:35 Calm 10.00 Fair CLR 46.4 41 82% 30.03 0.0
04 02:15 Calm 10.00 Fair CLR 48.2 41 76% 30.03 0.0
04 01:55 Calm 10.00 Fair CLR 50 39.2 67% 30.04 0.0
04 01:35 SW 5 10.00 Fair CLR 50 39.2 67% 49 30.04 0.0
04 01:15 Calm 10.00 Fair CLR 53.6 39.2 58% 30.03 0.0
04 00:55 Calm 10.00 Fair CLR 53.6 39.2 58% 30.03 0.0
04 00:35 Calm 10.00 Fair CLR 51.8 39.2 62% 30.03 0.0
04 00:15 Calm 10.00 Fair CLR 51.8 41 67% 30.04 0.0
03 23:55 Calm 10.00 Fair CLR 51.8 41 67% 30.05 0.0
03 23:35 Calm 10.00 Fair CLR 51.8 41 67% 30.05 0.0
03 23:15 Calm 10.00 Fair CLR 53.6 41 63% 30.04 0.0
03 22:55 Calm 10.00 Fair CLR 53.6 41 63% 30.04 0.0
03 22:35 Calm 10.00 Fair CLR 53.6 39.2 58% 30.04 0.0
03 22:15 Calm 10.00 Fair CLR 55.4 39.2 55% 30.03 0.0
03 21:55 Calm 10.00 Fair CLR 57.2 39.2 51% 30.02 0.0
03 21:35 Calm 10.00 Fair CLR 59 37.4 45% 30.02 0.0
03 21:15 Calm 10.00 Fair CLR 59 37.4 45% 30.02 0.0
03 20:55 Calm 10.00 Fair CLR 60.8 37.4 42% 30.01 0.0
03 20:35 Calm 10.00 Fair CLR 60.8 35.6 39% 30.01 0.0
03 20:15 Calm 10.00 Fair CLR 62.6 35.6 37% 30 0.0
03 19:55 Calm 10.00 Fair CLR 64.4 33.8 32% 30 0.0
03 19:35 SW 5 10.00 Fair CLR 64.4 33.8 32% 30 0.0
03 19:15 SW 3 10.00 Fair CLR 66.2 33.8 30% 30 0.0
03 18:55 W 5 10.00 Fair CLR 68 32 26% 30 0.0
03 18:35 W 7 10.00 Fair CLR 68 33.8 28% 30.01 0.0
03 18:15 SW 6 10.00 Fair CLR 68 33.8 28% 30 0.0
03 17:55 SW 5 10.00 Fair CLR 68 33.8 28% 30.01 0.0
03 17:35 W 5 10.00 Fair CLR 68 32 26% 30.01 0.0
03 17:15 SW 6 10.00 Fair CLR 68 33.8 28% 30.02 0.0
03 16:55 SW 8 10.00 Fair CLR 68 33.8 28% 30.02 0.0
03 16:35 W 12 G 18 10.00 Fair CLR 68 33.8 28% 30.02 0.0
03 16:15 SW 8 10.00 Fair CLR 68 33.8 28% 30.04 0.0
03 15:55 W 8 10.00 Fair CLR 68 33.8 28% 30.05 0.0
03 15:35 W 9 10.00 Fair CLR 68 33.8 28% 30.05 0.0
03 15:15 SW 9 10.00 Fair CLR 68 33.8 28% 30.07 0.0
03 14:35 SW 9 10.00 Fair CLR 64.4 32 30% 30.08 0.0
03 14:15 Calm 10.00 Fair CLR 64.4 32 30% 30.08 0.0
03 13:55 SW 3 10.00 Fair CLR 64.4 32 30% 30.09 0.0
03 13:35 SW 5 10.00 Fair CLR 62.6 32 32% 30.1 0.0
03 13:15 NE 3 10.00 Fair CLR 62.6 32 32% 30.1 0.0
03 12:55 W 3 G 16 10.00 Fair CLR 62.6 32 32% 30.12 0.0
03 12:35 SW 8 10.00 Fair CLR 62.6 33.8 34% 30.12 0.0
03 12:15 W 3 10.00 Fair CLR 60.8 32 34% 30.13 0.0
03 11:55 W 7 10.00 Fair CLR 60.8 32 34% 30.13 0.0
03 11:35 SE 3 10.00 Fair CLR 59 33.8 39% 30.14 0.0
03 11:15 N 5 10.00 Fair CLR 59 32 36% 30.14 0.0
03 10:55 N 6 10.00 Fair CLR 59 32 36% 30.15 0.0
03 10:35 N 3 10.00 Fair CLR 57.2 32 39% 30.15 0.0
03 10:15 N 5 10.00 Fair CLR 57.2 32 39% 30.14 0.0
03 09:55 N 6 10.00 Fair CLR 55.4 32 41% 30.13 0.0
03 09:35 NE 5 10.00 Fair CLR 53.6 32 44% 30.13 0.0
03 09:15 NE 3 10.00 Fair CLR 53.6 32 44% 30.13 0.0
03 08:35 N 5 10.00 Fair CLR 50 35.6 58% 49 30.13 0.0
03 08:15 NE 3 10.00 Fair CLR 50 37.4 62% 30.13 0.0
03 07:55 Calm 10.00 Fair CLR 46.4 37.4 71% 30.12 0.0
03 07:35 Calm 10.00 Fair CLR 44.6 37.4 76% 30.12 0.0
03 07:15 Calm 10.00 Fair CLR 41 35.6 81% 30.11 0.0
03 06:55 Calm 10.00 Fair CLR 41 35.6 81% 30.1 0.0
03 06:35 Calm 10.00 Fair CLR 41 35.6 81% 30.09 0.0
03 06:15 Calm 10.00 Fair CLR 41 33.8 76% 30.08 0.0
03 05:55 Calm 10.00 Fair CLR 41 35.6 81% 30.07 0.0
03 05:35 Calm 10.00 Fair CLR 42.8 33.8 71% 30.07 0.0
03 05:15 Calm 10.00 Fair CLR 44.6 33.8 66% 30.07 0.0
03 04:55 Calm 10.00 Fair CLR 46.4 32 57% 30.06 0.0
03 04:35 N 6 10.00 Fair CLR 46.4 32 57% 44 30.05 0.0
03 04:15 N 6 10.00 Fair CLR 46.4 32 57% 44 30.05 0.0
03 03:55 N 7 10.00 Fair CLR 48.2 32 54% 46 30.05 0.0
03 03:35 N 7 10.00 Fair CLR 48.2 32 54% 46 30.04 0.0
03 03:15 N 7 10.00 Fair CLR 50 32 50% 48 30.03 0.0
03 02:55 N 8 10.00 Fair CLR 48.2 32 54% 45 30.03 0.0
03 02:35 N 7 10.00 Fair CLR 46.4 33.8 62% 43 30.02 0.0
03 02:15 NW 3 10.00 Fair CLR 42.8 37.4 81% 30.02 0.0
03 01:55 Calm 10.00 Fair CLR 44.6 37.4 76% 30.02 0.0
03 01:35 N 3 10.00 Fair CLR 44.6 37.4 76% 30.02 0.0
03 01:15 Calm 10.00 Fair CLR 44.6 37.4 76% 30.02 0.0
03 00:55 Calm 10.00 Fair CLR 44.6 37.4 76% 30.02 0.0
03 00:35 Calm 10.00 Fair CLR 46.4 37.4 71% 30.02 0.0
03 00:15 Calm 10.00 Fair CLR 46.4 39.2 76% 30.02 0.0
02 23:55 Calm 10.00 Fair CLR 50 37.4 62% 30.01 0.0
02 23:35 Calm 10.00 Partly Cloudy SCT100 50 37.4 62% 30 0.0
02 23:15 Calm 10.00 Mostly Cloudy BKN100 53.6 33.8 47% 30 0.0
02 22:55 NE 3 10.00 Mostly Cloudy BKN100 55.4 33.8 44% 30 0.0
02 22:35 N 5 10.00 Mostly Cloudy BKN100 55.4 33.8 44% 29.99 0.0
02 22:15 Calm 10.00 Overcast OVC090 55.4 41 59% 29.98 0.0
02 21:55 NE 3 10.00 Overcast OVC090 57.2 37.4 48% 29.97 0.0
02 21:35 NE 5 10.00 Overcast OVC090 57.2 42.8 59% 29.96 0.0
02 21:15 N 5 10.00 Overcast OVC090 53.6 44.6 72% 29.94 0.0
02 20:55 Calm 10.00 Mostly Cloudy BKN090 55.4 44.6 67% 29.94 0.0
02 20:35 N 3 10.00 Overcast SCT075 OVC090 55.4 46.4 72% 29.93 0.0
02 20:15 Calm 10.00 Overcast SCT075 OVC085 59 44.6 59% 29.91 0.0
02 19:35 Calm 10.00 Partly Cloudy SCT048 SCT055 SCT090 59 44.6 59% 29.9 0.0
02 19:15 Calm 10.00 Mostly Cloudy BKN075 60.8 44.6 55% 29.88 0.0
02 18:55 Calm 10.00 Mostly Cloudy BKN075 60.8 42.8 52% 29.88 0.0
02 18:35 Calm 10.00 Fair CLR 62.6 42.8 49% 29.88 0.0
02 18:15 Calm 10.00 Partly Cloudy SCT065 SCT080 62.6 42.8 49% 29.87 0.0
02 17:55 SE 3 10.00 Fair CLR 62.6 42.8 49% 29.87 0.0
02 17:35 Calm 10.00 Partly Cloudy SCT085 62.6 42.8 49% 29.87 0.0
02 17:15 Calm 10.00 Overcast SCT055 OVC085 60.8 42.8 52% 29.87 0.0
02 16:35 SE 5 10.00 Mostly Cloudy SCT041 SCT048 BKN055 62.6 42.8 49% 29.87 0.0
02 16:15 SE 5 10.00 Overcast SCT039 OVC055 60.8 42.8 52% 29.87 0.0
02 15:55 E 5 10.00 Overcast OVC049 60.8 42.8 52% 29.88 0.0
02 15:35 NE 5 10.00 Overcast SCT037 OVC047 60.8 42.8 52% 29.88 0.0
02 15:15 NE 6 10.00 Overcast BKN037 BKN045 OVC055 60.8 42.8 52% 29.89 0.0
02 14:35 N 7 10.00 Overcast SCT036 BKN050 OVC065 60.8 42.8 52% 29.9 0.0
02 14:15 N 3 10.00 Mostly Cloudy SCT032 BKN050 60.8 42.8 52% 29.91 0.0
02 13:55 NE 8 10.00 Mostly Cloudy SCT032 BKN050 60.8 42.8 52% 29.91 0.0
02 13:35 E 6 10.00 Overcast OVC050 60.8 42.8 52% 29.92 0.0
02 13:15 NE 5 10.00 Overcast OVC048 57.2 41 55% 29.93 0.0
02 12:55 NE 8 10.00 Overcast OVC046 59 42.8 55% 29.93 0.0
02 12:35 NE 7 10.00 Overcast OVC046 57.2 42.8 59% 29.94 0.0
02 12:15 E 7 10.00 Overcast OVC046 55.4 42.8 63% 29.94 0.0
02 11:55 E 7 10.00 Overcast OVC044 55.4 42.8 63% 29.95 0.0
02 11:35 NE 8 10.00 Overcast OVC042 55.4 42.8 63% 29.95 0.0
02 11:15 NE 6 G 16 10.00 Overcast OVC042 55.4 42.8 63% 29.95 0.0
02 10:55 NE 9 10.00 Overcast OVC040 55.4 42.8 63% 29.94 0.0
02 10:35 E 6 10.00 Overcast OVC036 55.4 46.4 72% 29.95 0.0
02 10:15 E 5 10.00 Overcast OVC036 55.4 46.4 72% 29.94 0.0
02 09:55 NE 6 10.00 Mostly Cloudy BKN034 BKN050 55.4 46.4 72% 29.92 0.0
02 09:35 E 8 10.00 Mostly Cloudy SCT024 SCT034 BKN050 55.4 50 82% 29.92 0.0
02 08:55 NE 7 10.00 Mostly Cloudy BKN010 BKN017 BKN050 55.4 51.8 88% 29.93 0.0
02 08:35 NE 8 10.00 Mostly Cloudy SCT010 BKN110 55.4 51.8 88% 29.92 0.0
02 07:55 NE 6 10.00 Mostly Cloudy BKN100 BKN120 55.4 51.8 88% 29.89 0.0
02 07:35 N 5 10.00 Light Rain SCT040 SCT060 BKN085 53.6 51.8 94% 29.89 0.0
02 07:15 N 7 10.00 Overcast SCT085 OVC100 55.4 51.8 88% 29.88 0.0
02 06:55 N 5 10.00 Overcast OVC110 53.6 53.6 100% 29.88 0.0
02 06:35 N 3 10.00 Mostly Cloudy BKN110 53.6 51.8 94% 29.87 0.0
02 06:15 Calm 10.00 Overcast OVC110 53.6 51.8 94% 29.86 0.0
02 05:55 Calm 10.00 Mostly Cloudy BKN110 53.6 51.8 94% 29.87 0.0 0.01
02 05:35 Calm 10.00 Partly Cloudy SCT050 SCT110 55.4 53.6 94% 29.87 0.0 0.01
02 05:15 Calm 10.00 Light Rain SCT055 BKN070 55.4 53.6 94% 29.88 0.0 0.01
02 04:55 Calm 10.00 Light Rain OVC070 55.4 51.8 88% 29.9 0.0
02 04:35 Calm 10.00 Rain OVC070 55.4 51.8 88% 29.9 0.0
02 04:15 Calm 10.00 Drizzle OVC070 55.4 51.8 88% 29.9 0.0
02 03:55 Calm 10.00 Drizzle OVC080 55.4 51.8 88% 29.89 0.0
02 03:35 Calm 10.00 Rain SCT055 OVC080 55.4 51.8 88% 29.9 0.0
02 03:15 Calm 10.00 Overcast SCT055 BKN080 OVC090 55.4 51.8 88% 29.89 0.0
02 02:55 Calm 10.00 Overcast OVC100 55.4 50 82% 29.88 0.0
02 02:35 Calm 10.00 Overcast OVC100 55.4 50 82% 29.88 0.0
02 02:15 Calm 10.00 Overcast OVC110 55.4 50 82% 29.88 0.0
02 01:55 Calm 10.00 Mostly Cloudy BKN110 57.2 50 77% 29.88 0.0
02 01:35 Calm 10.00 Partly Cloudy SCT120 57.2 50 77% 29.89 0.0
02 01:15 Calm 10.00 Fair CLR 57.2 50 77% 29.9 0.0
02 00:55 Calm 10.00 Fair CLR 57.2 50 77% 29.9 0.0
02 00:35 Calm 10.00 Fair CLR 57.2 50 77% 29.9 0.0
02 00:15 Calm 10.00 Fair CLR 57.2 50 77% 29.91 0.0
01 23:55 Calm 10.00 Fair CLR 57.2 51.8 82% 29.91 0.0
01 23:35 Calm 10.00 Fair CLR 57.2 51.8 82% 29.91 0.0
01 23:15 Calm 10.00 Partly Cloudy SCT120 59 50 72% 29.91 0.0
01 22:55 Calm 10.00 Fair CLR 59 51.8 77% 29.92 0.0
01 22:35 Calm 10.00 Fair CLR 59 50 72% 29.92 0.0
01 22:15 Calm 10.00 Fair CLR 59 50 72% 29.92 0.0
01 21:55 Calm 10.00 Fair CLR 59 50 72% 29.91 0.0
01 21:35 Calm 10.00 Fair CLR 59 50 72% 29.91 0.0
01 21:15 Calm 10.00 Fair CLR 60.8 50 68% 29.91 0.0
01 20:55 Calm 10.00 Fair CLR 60.8 50 68% 29.9 0.0
01 20:35 Calm 10.00 Fair CLR 60.8 48.2 63% 29.9 0.0
01 20:15 Calm 10.00 Fair CLR 60.8 48.2 63% 29.89 0.0
01 19:55 Calm 10.00 Fair CLR 60.8 46.4 59% 29.88 0.0
01 19:35 Calm 10.00 Fair CLR 62.6 46.4 56% 29.88 0.0
01 19:15 S 3 10.00 Fair CLR 62.6 46.4 56% 29.87 0.0
01 18:55 Calm 10.00 Fair CLR 62.6 46.4 56% 29.87 0.0
01 18:35 Calm 10.00 Fair CLR 64.4 44.6 49% 29.88 0.0
01 18:15 Calm 10.00 Fair CLR 64.4 44.6 49% 29.88 0.0
01 17:55 Calm 10.00 Fair CLR 64.4 44.6 49% 29.89 0.0
01 17:35 W 5 10.00 Fair CLR 64.4 44.6 49% 29.89 0.0
01 17:15 SW 3 10.00 Fair CLR 64.4 44.6 49% 29.9 0.0
01 16:50 Calm 10.00 Fair CLR 64.4 42.8 46% 29.89 0.0
01 16:35 Calm 10.00 Fair CLR 64.4 44.6 49% 29.9 0.0
01 16:15 NW 3 10.00 Fair CLR 64.4 42.8 46% 29.91 0.0
01 15:55 S 5 10.00 Fair CLR 64.4 42.8 46% 29.91 0.0
01 15:30 S 3 10.00 Fair CLR 64.4 42.8 46% 29.93 0.0
Date Time (edt) Wind (mph) Vis. (mi.) Weather Sky Cond. Air Dwpt Max. Min. Relative Humidity Wind Chill (°F) Heat Index (°F) altimeter (in) sea level (mb) 1 hr 3 hr 6 hr
6 hour
Temperature (ºF) Pressure Precipitation (in)